Time;durP1;ratioP1;P1;durP2;ratioP2;P2;SDS_P1;SDS_P2;PMS_P1;PMS_P2;Temp;Humidity;BMP_temperature;BMP_pressure;BME280_temperature;BME280_humidity;BME280_pressure;Samples;Min_cycle;Max_cycle;Signal;HPM_P1;HPM_P2
2022/06/12 00:00:50;;;;;;;;;;;;;;;28.90;28.45;101196.06;4412344;32;20024;-69
2022/06/12 00:03:17;;;;;;;;;;;;;;;28.76;28.49;101200.31;4419976;32;20060;-70
2022/06/12 00:05:45;;;;;;;;;;;;;;;28.76;28.63;101194.53;4413178;32;20390;-69
2022/06/12 00:08:10;;;;;;;;;;;;;;;28.98;28.24;101194.09;4417421;32;20048;-69
2022/06/12 00:10:38;;;;;;;;;;;;;;;29.09;28.01;101198.91;4416924;32;20015;-69
2022/06/12 00:13:06;;;;;;;;;;;;;;;29.24;28.11;101199.13;4416056;32;20007;-69
2022/06/12 00:15:32;;;;;;;;;;;;;;;28.95;28.45;101208.91;4416215;32;20009;-69
2022/06/12 00:17:58;;;;;;;;;;;;;;;29.16;28.13;101204.03;4416658;32;20015;-69
2022/06/12 00:20:24;;;;;;;;;;;;;;;28.90;28.49;101198.97;4414509;32;20215;-69
2022/06/12 00:22:50;;;;;;;;;;;;;;;28.92;28.54;101207.13;4416301;32;20030;-69
2022/06/12 00:25:17;;;;;;;;;;;;;;;29.25;28.01;101211.50;4417316;32;19994;-69
2022/06/12 00:27:42;;;;;;;;;;;;;;;29.37;27.92;101204.91;4413113;32;20442;-69
2022/06/12 00:30:09;;;;;;;;;;;;;;;29.14;28.21;101206.69;4414616;32;19989;-69
2022/06/12 00:32:38;;;;;;;;;;;;;;;29.19;28.08;101205.03;4415509;32;20025;-69
2022/06/12 00:35:07;;;;;;;;;;;;;;;28.92;28.47;101195.53;4416791;32;20241;-69
2022/06/12 00:37:33;;;;;;;;;;;;;;;28.30;29.44;101195.03;4414700;32;19996;-69
2022/06/12 00:39:59;;;;;;;;;;;;;;;28.36;29.57;101200.72;4416342;32;20093;-69
2022/06/12 00:42:45;;;;;;;;;;;;;;;28.57;29.24;101196.72;4414576;32;19965;-69
2022/06/12 00:45:28;;;;;;;;;;;;;;;28.71;28.99;101192.50;4417002;32;19965;-69
2022/06/12 00:47:54;;;;;;;;;;;;;;;28.15;29.82;101200.56;4415306;32;20360;-69
2022/06/12 00:50:20;;;;;;;;;;;;;;;28.50;29.40;101191.56;4416052;32;19957;-69
2022/06/12 00:52:47;;;;;;;;;;;;;;;28.78;28.79;101197.62;4414982;32;20027;-69
2022/06/12 00:55:24;;;;;;;;;;;;;;;28.95;28.80;101198.09;4416859;32;20011;-69
2022/06/12 00:57:50;;;;;;;;;;;;;;;28.77;28.92;101192.38;4413846;32;19949;-69
2022/06/12 01:00:16;;;;;;;;;;;;;;;28.16;29.90;101187.62;4413383;32;20056;-69
2022/06/12 01:02:42;;;;;;;;;;;;;;;27.49;30.99;101186.25;4416869;32;19989;-69
2022/06/12 01:07:58;;;;;;;;;;;;;;;27.71;30.69;101185.94;4418642;32;19988;-68
2022/06/12 01:10:28;;;;;;;;;;;;;;;28.04;30.33;101189.13;4415698;32;20016;-69
2022/06/12 01:12:57;;;;;;;;;;;;;;;27.78;30.39;101179.53;4417598;32;20001;-69
2022/06/12 01:15:27;;;;;;;;;;;;;;;28.11;30.12;101188.53;4413234;32;20036;-69
2022/06/12 01:17:53;;;;;;;;;;;;;;;27.88;30.48;101178.63;4413320;32;20384;-69
2022/06/12 01:20:24;;;;;;;;;;;;;;;27.55;31.06;101181.94;4414320;32;20351;-69
2022/06/12 01:23:09;;;;;;;;;;;;;;;27.25;31.51;101177.62;4417349;32;20005;-69
2022/06/12 01:25:55;;;;;;;;;;;;;;;27.97;30.55;101184.00;4415131;32;20000;-69
2022/06/12 01:28:40;;;;;;;;;;;;;;;27.36;31.26;101175.38;4412780;32;19961;-69
2022/06/12 01:33:56;;;;;;;;;;;;;;;28.06;30.76;101171.22;3950198;32;15838051;-69
2022/06/12 01:36:27;;;;;;;;;;;;;;;28.06;30.76;101171.22;4434597;32;20034;-69
2022/06/12 01:39:02;;;;;;;;;;;;;;;27.60;31.13;101163.75;4436633;32;20099;-69
2022/06/12 01:44:13;;;;;;;;;;;;;;;28.24;30.20;101170.41;3961370;32;15722606;-70
2022/06/12 01:46:44;;;;;;;;;;;;;;;28.24;30.20;101170.41;4436116;32;20360;-70
2022/06/12 01:51:52;;;;;;;;;;;;;;;28.64;29.86;101175.78;3950917;32;15725274;-70
2022/06/12 01:54:37;;;;;;;;;;;;;;;28.64;29.86;101175.78;4436442;32;20050;-70
2022/06/12 01:59:43;;;;;;;;;;;;;;;28.15;30.49;101171.63;3972639;31;15718024;-70
2022/06/12 02:02:13;;;;;;;;;;;;;;;28.15;30.49;101171.63;4443130;32;20426;-70
2022/06/12 02:09:57;;;;;;;;;;;;;;;28.29;30.58;101181.12;3951827;32;15721604;-70
2022/06/12 02:15:17;;;;;;;;;;;;;;;27.89;30.71;101162.81;4426233;32;19957;-70
2022/06/12 02:18:02;;;;;;;;;;;;;;;27.78;31.16;101162.19;4428811;32;19973;-69
2022/06/12 02:20:35;;;;;;;;;;;;;;;27.64;31.36;101167.09;4430113;32;19961;-69
2022/06/12 02:23:04;;;;;;;;;;;;;;;28.15;30.57;101165.81;4428703;32;20008;-69
2022/06/12 02:25:33;;;;;;;;;;;;;;;28.09;30.49;101161.44;4429254;32;20357;-70
2022/06/12 02:28:03;;;;;;;;;;;;;;;28.00;30.73;101162.66;4428095;32;19964;-69
2022/06/12 02:30:34;;;;;;;;;;;;;;;28.27;30.28;101164.31;4427905;32;20439;-69
2022/06/12 02:33:02;;;;;;;;;;;;;;;28.50;29.93;101170.53;4428288;32;20035;-70
2022/06/12 02:35:32;;;;;;;;;;;;;;;28.65;29.60;101162.06;4432372;32;20000;-70
2022/06/12 02:38:01;;;;;;;;;;;;;;;28.83;29.43;101161.19;4429310;32;19953;-69
2022/06/12 02:40:30;;;;;;;;;;;;;;;29.00;29.15;101165.31;4428857;32;20359;-70
2022/06/12 02:42:58;;;;;;;;;;;;;;;29.01;28.91;101172.69;4426530;32;19989;-69
2022/06/12 02:45:28;;;;;;;;;;;;;;;28.86;29.35;101169.56;4427900;32;19986;-70
2022/06/12 02:47:53;;;;;;;;;;;;;;;28.97;29.12;101168.56;4425999;32;19961;-70
2022/06/12 02:50:22;;;;;;;;;;;;;;;28.93;29.23;101168.87;4429931;32;20021;-69
2022/06/12 02:52:54;;;;;;;;;;;;;;;28.93;29.02;101174.69;4429281;32;19980;-69
2022/06/12 02:55:25;;;;;;;;;;;;;;;28.69;29.37;101168.31;4427248;32;20064;-69
2022/06/12 03:00:43;;;;;;;;;;;;;;;29.47;28.60;101171.22;3952981;32;15721354;-69
2022/06/12 03:05:48;;;;;;;;;;;;;;;28.63;29.71;101177.09;3951537;32;15722566;-69
2022/06/12 03:08:15;;;;;;;;;;;;;;;28.63;29.71;101177.09;4429880;32;20256;-69
2022/06/12 03:10:45;;;;;;;;;;;;;;;28.50;29.86;101177.06;4431534;32;19957;-69
2022/06/12 03:13:11;;;;;;;;;;;;;;;28.46;29.82;101182.41;4433935;32;19969;-69
2022/06/12 03:18:15;;;;;;;;;;;;;;;28.63;29.88;101173.44;3951982;32;15722551;-69
2022/06/12 03:20:49;;;;;;;;;;;;;;;28.63;29.88;101173.44;4429859;32;20008;-69
2022/06/12 03:23:28;;;;;;;;;;;;;;;28.41;29.76;101174.56;4430307;32;20026;-69
2022/06/12 03:25:56;;;;;;;;;;;;;;;28.21;30.02;101168.63;4424110;32;20037;-69
2022/06/12 03:31:02;;;;;;;;;;;;;;;28.68;29.68;101160.94;3950849;32;15728504;-68
2022/06/12 03:33:48;;;;;;;;;;;;;;;28.68;29.68;101160.94;4431855;32;20356;-68
2022/06/12 03:36:18;;;;;;;;;;;;;;;28.19;30.14;101160.47;4429313;32;20008;-68
2022/06/12 03:38:52;;;;;;;;;;;;;;;28.18;30.07;101158.94;4431833;32;20393;-68
2022/06/12 03:44:16;;;;;;;;;;;;;;;27.75;30.70;101155.37;3952101;32;15722276;-69
2022/06/12 03:54:45;;;;;;;;;;;;;;;27.62;31.07;101161.09;3953822;32;15724614;-69
2022/06/12 04:02:45;;;;;;;;;;;;;;;27.68;30.62;101166.81;3951332;32;15723234;-70
2022/06/12 04:05:17;;;;;;;;;;;;;;;27.68;30.62;101166.81;4436166;32;19976;-70
2022/06/12 04:07:45;;;;;;;;;;;;;;;27.54;31.00;101173.81;4437654;32;19957;-70
2022/06/12 04:10:15;;;;;;;;;;;;;;;27.62;30.52;101177.66;4437774;32;20012;-70
2022/06/12 04:12:41;;;;;;;;;;;;;;;27.99;30.25;101174.78;4434326;32;20038;-70
2022/06/12 04:17:43;;;;;;;;;;;;;;;28.62;29.46;101175.53;3951838;32;15722298;-69
2022/06/12 04:20:13;;;;;;;;;;;;;;;28.62;29.46;101175.53;4430627;32;19987;-69
2022/06/12 04:22:46;;;;;;;;;;;;;;;28.77;29.08;101175.78;4428149;32;19992;-69
2022/06/12 04:25:19;;;;;;;;;;;;;;;29.00;28.64;101179.81;4430047;32;20310;-69
2022/06/12 04:27:46;;;;;;;;;;;;;;;28.54;29.21;101183.34;4431078;32;20300;-69
2022/06/12 04:30:16;;;;;;;;;;;;;;;28.78;28.77;101186.03;4428041;32;20395;-69
2022/06/12 04:32:43;;;;;;;;;;;;;;;29.13;28.16;101184.84;4426150;32;20333;-69
2022/06/12 04:35:09;;;;;;;;;;;;;;;29.11;28.32;101190.41;4428456;32;20264;-70
2022/06/12 04:37:34;;;;;;;;;;;;;;;29.36;28.13;101188.84;4432852;32;19976;-69
2022/06/12 04:40:02;;;;;;;;;;;;;;;29.54;27.84;101187.16;4430718;32;20048;-69
2022/06/12 04:42:31;;;;;;;;;;;;;;;29.47;27.80;101190.72;4412761;32;19964;-69
2022/06/12 04:45:00;;;;;;;;;;;;;;;29.50;27.72;101180.91;4429901;32;21175;-69
2022/06/12 04:47:28;;;;;;;;;;;;;;;29.34;27.92;101179.16;4428316;32;20000;-69
2022/06/12 04:49:54;;;;;;;;;;;;;;;29.70;27.69;101189.69;4430074;32;19953;-69
2022/06/12 04:52:21;;;;;;;;;;;;;;;29.72;27.35;101184.12;4427429;32;19959;-70
2022/06/12 04:54:47;;;;;;;;;;;;;;;29.45;27.78;101188.38;4428428;32;19995;-70
2022/06/12 04:57:13;;;;;;;;;;;;;;;29.56;27.69;101188.16;4429920;32;20013;-69
2022/06/12 04:59:38;;;;;;;;;;;;;;;29.36;27.92;101182.28;4430084;32;19937;-69
2022/06/12 05:02:05;;;;;;;;;;;;;;;29.68;27.60;101189.50;4429640;32;20003;-69
2022/06/12 05:04:32;;;;;;;;;;;;;;;29.79;27.62;101188.47;4427638;32;19966;-69
2022/06/12 05:06:57;;;;;;;;;;;;;;;29.56;27.83;101198.97;4426820;32;20102;-69
2022/06/12 05:09:25;;;;;;;;;;;;;;;30.00;27.31;101189.28;4428391;32;21395;-70
2022/06/12 05:11:51;;;;;;;;;;;;;;;29.62;27.75;101193.84;4431357;32;19973;-69
2022/06/12 05:14:17;;;;;;;;;;;;;;;30.33;27.12;101195.06;4427237;32;19973;-69
2022/06/12 05:16:46;;;;;;;;;;;;;;;30.43;26.81;101195.38;4426028;32;20000;-70
2022/06/12 05:19:14;;;;;;;;;;;;;;;30.42;26.82;101202.50;4430917;32;20018;-69
2022/06/12 05:21:40;;;;;;;;;;;;;;;30.95;26.29;101200.09;4428928;32;20362;-69
2022/06/12 05:24:05;;;;;;;;;;;;;;;30.36;26.92;101201.88;4429479;32;20019;-70
2022/06/12 05:26:33;;;;;;;;;;;;;;;30.56;26.46;101216.37;4428985;32;20345;-70
2022/06/12 05:28:59;;;;;;;;;;;;;;;30.14;26.95;101208.19;4420590;32;20241;-70
2022/06/12 05:31:25;;;;;;;;;;;;;;;29.39;27.32;101210.16;4415941;32;19987;-70
2022/06/12 05:33:51;;;;;;;;;;;;;;;28.96;28.03;101202.53;4415588;32;19965;-70
2022/06/12 05:36:16;;;;;;;;;;;;;;;28.73;28.10;101203.53;4415000;32;20037;-70
2022/06/12 05:38:43;;;;;;;;;;;;;;;28.14;28.81;101204.78;4419734;32;19969;-70
2022/06/12 05:41:08;;;;;;;;;;;;;;;29.15;27.73;101198.78;4419676;32;20025;-69
2022/06/12 05:43:34;;;;;;;;;;;;;;;29.18;27.29;101200.56;4419565;32;20335;-70
2022/06/12 05:45:59;;;;;;;;;;;;;;;29.15;27.35;101213.28;4416931;32;19988;-70
2022/06/12 05:48:25;;;;;;;;;;;;;;;29.42;27.09;101203.25;4416852;32;19981;-70
2022/06/12 05:50:53;;;;;;;;;;;;;;;29.21;27.32;101211.84;4417451;32;20665;-70
2022/06/12 05:53:20;;;;;;;;;;;;;;;29.25;27.09;101211.50;4419197;32;19961;-70
2022/06/12 05:55:46;;;;;;;;;;;;;;;29.61;26.75;101207.56;4416050;32;21246;-70
2022/06/12 05:58:12;;;;;;;;;;;;;;;29.18;27.22;101206.37;4414618;32;19961;-70
2022/06/12 06:00:37;;;;;;;;;;;;;;;28.69;27.76;101212.53;4419152;32;20002;-70
2022/06/12 06:03:03;;;;;;;;;;;;;;;28.66;27.64;101213.63;4418474;32;19961;-70
2022/06/12 06:05:29;;;;;;;;;;;;;;;29.30;27.04;101210.63;4416036;32;20000;-70
2022/06/12 06:07:56;;;;;;;;;;;;;;;29.40;26.80;101211.72;4418912;32;19969;-70
2022/06/12 06:10:23;;;;;;;;;;;;;;;28.76;27.59;101211.09;4414771;32;19953;-70
2022/06/12 06:12:49;;;;;;;;;;;;;;;28.49;27.99;101218.97;4416395;32;20579;-69
2022/06/12 06:15:14;;;;;;;;;;;;;;;28.97;27.36;101214.94;4414770;32;19989;-70
2022/06/12 06:17:40;;;;;;;;;;;;;;;28.91;27.24;101209.25;4420968;32;19986;-70
2022/06/12 06:20:07;;;;;;;;;;;;;;;28.62;27.66;101219.00;4417669;32;20455;-70
2022/06/12 06:22:32;;;;;;;;;;;;;;;28.28;28.02;101212.16;4417734;32;20001;-69
2022/06/12 06:24:58;;;;;;;;;;;;;;;28.50;27.57;101222.66;4419037;32;20351;-69
2022/06/12 06:27:25;;;;;;;;;;;;;;;28.22;28.01;101220.16;4417007;32;20335;-70
2022/06/12 06:29:50;;;;;;;;;;;;;;;28.94;27.09;101219.72;4416576;32;19989;-70
2022/06/12 06:32:16;;;;;;;;;;;;;;;28.50;27.54;101208.16;4414503;32;20012;-70
2022/06/12 06:34:41;;;;;;;;;;;;;;;28.76;27.20;101209.00;4417288;32;20389;-69
2022/06/12 06:37:09;;;;;;;;;;;;;;;29.66;26.15;101217.53;4417945;32;20408;-70
2022/06/12 06:39:34;;;;;;;;;;;;;;;28.87;26.90;101222.50;4415672;32;19957;-70
2022/06/12 06:42:00;;;;;;;;;;;;;;;28.84;27.19;101223.63;4418462;32;19994;-70
2022/06/12 06:47:11;;;;;;;;;;;;;;;28.97;26.63;101220.72;4415360;32;20017;-69
2022/06/12 06:49:37;;;;;;;;;;;;;;;29.14;26.24;101224.09;4416828;32;19965;-69
2022/06/12 06:52:03;;;;;;;;;;;;;;;28.95;26.69;101235.78;4418595;32;19977;-69
2022/06/12 06:54:29;;;;;;;;;;;;;;;29.21;26.75;101240.06;4414690;32;20225;-70
2022/06/12 06:56:55;;;;;;;;;;;;;;;28.55;27.43;101233.34;4415458;32;20151;-70
2022/06/12 06:59:22;;;;;;;;;;;;;;;29.74;25.95;101236.56;4417439;32;20041;-70
2022/06/12 07:01:47;;;;;;;;;;;;;;;29.32;26.36;101242.75;4411078;32;20411;-70
2022/06/12 07:04:13;;;;;;;;;;;;;;;29.82;25.86;101236.66;4416215;32;19981;-70
2022/06/12 07:06:38;;;;;;;;;;;;;;;30.03;25.68;101249.12;4404393;32;19965;-70
2022/06/12 07:09:04;;;;;;;;;;;;;;;28.42;27.33;101265.91;4416185;32;20002;-70
2022/06/12 07:11:31;;;;;;;;;;;;;;;28.04;28.07;101263.63;4416745;32;20053;-69
2022/06/12 07:13:56;;;;;;;;;;;;;;;27.62;28.55;101267.31;4414724;32;20292;-69
2022/06/12 07:16:23;;;;;;;;;;;;;;;28.80;26.89;101255.00;4417471;32;20012;-70
2022/06/12 07:18:49;;;;;;;;;;;;;;;29.25;26.41;101261.56;4416994;32;19967;-70
2022/06/12 07:21:15;;;;;;;;;;;;;;;29.04;26.70;101257.75;4413468;32;20039;-70
2022/06/12 07:23:41;;;;;;;;;;;;;;;28.48;27.13;101269.53;4414770;32;21029;-70
2022/06/12 07:26:09;;;;;;;;;;;;;;;29.15;26.56;101265.47;4415935;32;20005;-70
2022/06/12 07:28:36;;;;;;;;;;;;;;;29.51;26.02;101264.47;4416576;32;19953;-70
2022/06/12 07:31:03;;;;;;;;;;;;;;;30.19;25.15;101268.31;4412174;32;20012;-70
2022/06/12 07:33:29;;;;;;;;;;;;;;;30.32;25.07;101279.84;4415727;32;19962;-70
2022/06/12 07:35:54;;;;;;;;;;;;;;;29.74;25.66;101288.00;4413070;32;19953;-70
2022/06/12 07:38:21;;;;;;;;;;;;;;;30.08;25.24;101280.91;4416046;32;20008;-70
2022/06/12 07:40:50;;;;;;;;;;;;;;;30.33;24.76;101290.13;4414476;32;19992;-70
2022/06/12 07:43:15;;;;;;;;;;;;;;;30.23;24.58;101295.66;4416688;32;20012;-70
2022/06/12 07:45:43;;;;;;;;;;;;;;;30.36;24.60;101292.69;4411900;32;19965;-70
2022/06/12 07:48:08;;;;;;;;;;;;;;;29.78;25.29;101295.03;4414775;32;19962;-70
2022/06/12 07:50:35;;;;;;;;;;;;;;;29.74;25.47;101302.53;4415934;32;20005;-70
2022/06/12 07:53:02;;;;;;;;;;;;;;;29.54;25.57;101306.09;4415353;32;20403;-70
2022/06/12 07:55:28;;;;;;;;;;;;;;;29.18;26.00;101310.72;4415684;32;19961;-70
2022/06/12 07:57:56;;;;;;;;;;;;;;;30.01;24.99;101315.66;4416643;32;20315;-70
2022/06/12 08:00:22;;;;;;;;;;;;;;;30.53;24.22;101295.19;4416180;32;20029;-70
2022/06/12 08:02:48;;;;;;;;;;;;;;;30.45;24.37;101323.38;4414879;32;19953;-70
2022/06/12 08:05:15;;;;;;;;;;;;;;;29.68;25.06;101322.16;4417888;32;19997;-70
2022/06/12 08:07:41;;;;;;;;;;;;;;;30.11;24.49;101329.16;4411804;32;19973;-70
2022/06/12 08:10:07;;;;;;;;;;;;;;;30.11;23.97;101331.25;4416260;32;20690;-70
2022/06/12 08:12:34;;;;;;;;;;;;;;;29.73;24.28;101324.19;4415221;32;19956;-70
2022/06/12 08:15:00;;;;;;;;;;;;;;;29.20;24.22;101334.94;4413756;32;20036;-70
2022/06/12 08:17:25;;;;;;;;;;;;;;;29.33;23.89;101331.28;4415677;32;19958;-70
2022/06/12 08:22:36;;;;;;;;;;;;;;;29.41;23.58;101329.25;4413002;32;20387;-70
2022/06/12 08:25:02;;;;;;;;;;;;;;;29.85;23.24;101328.41;4416316;32;20712;-70
2022/06/12 08:27:28;;;;;;;;;;;;;;;31.42;21.79;101322.78;4411159;32;19968;-70
2022/06/12 08:29:54;;;;;;;;;;;;;;;31.50;21.70;101338.16;4414595;32;19995;-70
2022/06/12 08:32:21;;;;;;;;;;;;;;;30.15;22.19;101341.19;4414358;32;20017;-70
2022/06/12 08:34:50;;;;;;;;;;;;;;;31.02;22.15;101325.16;4416093;32;20013;-70
2022/06/12 08:37:17;;;;;;;;;;;;;;;30.88;22.11;101344.00;4413744;32;19957;-70
2022/06/12 08:39:43;;;;;;;;;;;;;;;31.22;21.92;101333.06;4413505;32;20373;-70
2022/06/12 08:42:27;;;;;;;;;;;;;;;31.40;21.89;101342.91;4416274;32;19954;-70
2022/06/12 08:44:59;;;;;;;;;;;;;;;31.12;22.36;101343.66;4414505;32;20282;-70
2022/06/12 08:47:31;;;;;;;;;;;;;;;31.87;21.66;101320.94;4411536;32;19976;-70
2022/06/12 08:52:45;;;;;;;;;;;;;;;32.07;20.60;101336.75;3951840;32;15738520;-70
2022/06/12 08:55:17;;;;;;;;;;;;;;;32.07;20.60;101336.75;4414944;32;19993;-70
2022/06/12 08:57:49;;;;;;;;;;;;;;;31.77;20.83;101346.09;4423715;32;19958;-70
2022/06/12 09:00:17;;;;;;;;;;;;;;;30.69;21.04;101363.75;4429384;32;20434;-70
2022/06/12 09:02:44;;;;;;;;;;;;;;;30.96;20.15;101368.13;4429148;32;19962;-70
2022/06/12 09:05:12;;;;;;;;;;;;;;;30.65;20.47;101377.84;4409251;32;20395;-70
2022/06/12 09:07:58;;;;;;;;;;;;;;;31.19;19.55;101368.31;4426539;32;20306;-70
2022/06/12 09:13:08;;;;;;;;;;;;;;;30.69;21.04;101358.72;3953368;32;15724295;-69
2022/06/12 09:15:38;;;;;;;;;;;;;;;30.69;21.04;101358.72;4429088;32;20184;-69
2022/06/12 09:18:23;;;;;;;;;;;;;;;31.07;20.63;101350.38;4426443;32;19953;-70
2022/06/12 09:26:23;;;;;;;;;;;;;;;31.28;19.60;101342.44;3971526;31;15719038;-69
2022/06/12 09:31:40;;;;;;;;;;;;;;;31.36;19.34;101354.94;3963222;31;15716608;-70
2022/06/12 09:34:10;;;;;;;;;;;;;;;31.36;19.34;101354.94;4442887;32;20005;-70
2022/06/12 09:42:01;;;;;;;;;;;;;;;31.64;19.99;101342.50;3950829;32;15724342;-69
2022/06/12 09:44:47;;;;;;;;;;;;;;;31.64;19.99;101342.50;4429473;32;19968;-69
2022/06/12 09:47:18;;;;;;;;;;;;;;;31.07;20.52;101340.88;4428889;32;20449;-69
2022/06/12 09:50:04;;;;;;;;;;;;;;;31.59;19.99;101334.69;4426972;32;20292;-69
2022/06/12 09:52:49;;;;;;;;;;;;;;;32.45;19.24;101335.56;4429750;32;20220;-69
2022/06/12 09:55:33;;;;;;;;;;;;;;;32.63;18.62;101333.66;4429058;32;19993;-70
2022/06/12 10:00:57;;;;;;;;;;;;;;;32.34;18.51;101353.38;3952578;32;15723755;-69
2022/06/12 10:06:04;;;;;;;;;;;;;;;32.48;18.52;101337.34;3950311;32;15723440;-69
2022/06/12 10:11:10;;;;;;;;;;;;;;;31.55;19.42;101343.03;3951261;32;15722634;-71
2022/06/12 10:13:39;;;;;;;;;;;;;;;31.55;19.42;101343.03;4430628;32;20013;-70
2022/06/12 10:16:10;;;;;;;;;;;;;;;31.89;18.89;101353.19;4430607;32;19966;-69
2022/06/12 10:18:39;;;;;;;;;;;;;;;32.03;18.53;101359.66;4426907;32;19953;-69
2022/06/12 10:21:07;;;;;;;;;;;;;;;31.37;18.70;101373.94;4428885;32;19953;-69
2022/06/12 10:23:34;;;;;;;;;;;;;;;32.67;17.59;101363.19;4427168;32;19964;-69
2022/06/12 10:26:01;;;;;;;;;;;;;;;32.16;17.58;101359.50;4427026;32;20047;-69
2022/06/12 10:28:29;;;;;;;;;;;;;;;32.46;17.71;101345.87;4428923;32;19958;-69
2022/06/12 10:30:58;;;;;;;;;;;;;;;34.05;16.66;101349.63;4425022;32;20356;-69
2022/06/12 10:33:25;;;;;;;;;;;;;;;34.46;16.16;101346.13;4427093;32;20320;-70
2022/06/12 10:35:53;;;;;;;;;;;;;;;34.10;16.21;101336.91;4425688;32;19961;-69
2022/06/12 10:38:19;;;;;;;;;;;;;;;32.76;17.67;101353.13;4425638;32;20005;-69
2022/06/12 10:40:47;;;;;;;;;;;;;;;33.42;17.50;101342.13;4425951;32;20005;-69
2022/06/12 10:43:22;;;;;;;;;;;;;;;33.34;17.68;101353.00;4427383;32;20389;-70
2022/06/12 10:45:55;;;;;;;;;;;;;;;32.21;17.55;101353.50;4424851;32;20018;-70
2022/06/12 10:48:23;;;;;;;;;;;;;;;33.29;16.54;101353.97;4428179;32;19961;-70
2022/06/12 10:50:51;;;;;;;;;;;;;;;33.25;16.49;101339.78;4426449;32;19976;-69
2022/06/12 10:53:18;;;;;;;;;;;;;;;33.31;16.51;101349.09;4428471;32;19962;-71
2022/06/12 10:58:39;;;;;;;;;;;;;;;32.09;17.77;101345.72;3958251;32;15725358;-70
2022/06/12 11:01:11;;;;;;;;;;;;;;;32.09;17.77;101345.72;4427119;32;20373;-70
2022/06/12 11:03:55;;;;;;;;;;;;;;;31.73;18.20;101347.81;4431107;32;19964;-70
2022/06/12 11:06:26;;;;;;;;;;;;;;;32.77;17.05;101328.44;4433915;32;19989;-71
2022/06/12 11:08:59;;;;;;;;;;;;;;;32.98;16.71;101324.03;4429279;32;19958;-70
2022/06/12 11:14:21;;;;;;;;;;;;;;;33.48;16.50;101343.50;3951576;32;15746640;-71
2022/06/12 11:27:35;;;;;;;;;;;;;;;36.04;14.13;101328.03;3951630;32;15721482;-69
2022/06/12 11:35:22;;;;;;;;;;;;;;;36.43;13.50;101340.84;3950824;32;15724593;-70
2022/06/12 11:38:07;;;;;;;;;;;;;;;36.43;13.50;101340.84;4425120;32;20005;-70
2022/06/12 11:48:40;;;;;;;;;;;;;;;34.52;15.08;101329.16;3951876;32;15722578;-69
2022/06/12 11:51:20;;;;;;;;;;;;;;;34.52;15.08;101329.16;4433159;32;20008;-69
2022/06/12 11:56:41;;;;;;;;;;;;;;;34.73;14.90;101306.22;3969976;31;15716950;-70
2022/06/12 11:59:21;;;;;;;;;;;;;;;34.73;14.90;101306.22;4450290;32;19957;-70
2022/06/12 12:01:54;;;;;;;;;;;;;;;34.96;14.83;101315.59;4450386;32;20007;-70
2022/06/12 12:04:39;;;;;;;;;;;;;;;34.77;14.84;101323.31;4450579;32;19996;-70
2022/06/12 12:12:23;;;;;;;;;;;;;;;33.99;15.18;101319.84;3950036;32;15725590;-70
2022/06/12 12:14:51;;;;;;;;;;;;;;;33.99;15.18;101319.84;4432009;32;19992;-71
2022/06/12 12:17:20;;;;;;;;;;;;;;;33.00;15.47;101306.72;4435185;32;20010;-70
2022/06/12 12:22:30;;;;;;;;;;;;;;;33.23;15.73;101316.25;3966580;31;15919711;-70
2022/06/12 12:24:59;;;;;;;;;;;;;;;33.23;15.73;101316.25;4458154;32;20011;-70
2022/06/12 12:27:30;;;;;;;;;;;;;;;34.46;14.84;101327.81;4457463;32;19988;-70
2022/06/12 12:29:57;;;;;;;;;;;;;;;33.25;15.18;101325.19;4454239;32;20315;-70
2022/06/12 12:32:24;;;;;;;;;;;;;;;34.09;14.79;101320.78;4458184;32;19989;-70
2022/06/12 12:34:52;;;;;;;;;;;;;;;34.13;14.94;101318.22;4458450;32;19963;-70
2022/06/12 12:43:00;;;;;;;;;;;;;;;34.53;14.88;101321.13;4460803;32;19949;-71
2022/06/12 12:50:47;;;;;;;;;;;;;;;34.13;15.09;101324.06;3950233;32;15732168;-69
2022/06/12 12:53:29;;;;;;;;;;;;;;;34.13;15.09;101324.06;4430018;32;19961;-70
2022/06/12 12:55:58;;;;;;;;;;;;;;;33.47;15.62;101318.56;4427792;32;20004;-70
2022/06/12 12:58:25;;;;;;;;;;;;;;;33.51;15.60;101327.72;4425280;32;20983;-70
2022/06/12 13:01:00;;;;;;;;;;;;;;;33.12;16.22;101316.62;4428536;32;19995;-70
2022/06/12 13:03:28;;;;;;;;;;;;;;;34.36;15.50;101319.69;4426266;32;19980;-70
2022/06/12 13:16:41;;;;;;;;;;;;;;;33.53;16.51;101324.22;3950051;32;15732285;-70
2022/06/12 13:19:26;;;;;;;;;;;;;;;33.53;16.51;101324.22;4425033;32;20019;-70
2022/06/12 13:24:46;;;;;;;;;;;;;;;36.33;14.55;101327.47;3962011;31;15716300;-70
2022/06/12 13:29:48;;;;;;;;;;;;;;;36.90;13.86;101321.97;3951630;32;15723451;-70
2022/06/12 13:34:57;;;;;;;;;;;;;;;37.17;13.60;101328.56;3962437;31;15716486;-71
2022/06/12 13:37:23;;;;;;;;;;;;;;;37.59;13.13;101320.19;4439898;32;20055;-71
2022/06/12 13:39:52;;;;;;;;;;;;;;;36.03;13.54;101314.75;4439655;32;20355;-71
2022/06/12 13:42:21;;;;;;;;;;;;;;;36.22;13.51;101308.25;4442739;32;19967;-70
2022/06/12 13:44:47;;;;;;;;;;;;;;;36.14;13.67;101319.31;4441596;32;20072;-70
2022/06/12 13:54:59;;;;;;;;;;;;;;;36.21;14.31;101321.37;3950995;32;15724551;-70
2022/06/12 13:57:29;;;;;;;;;;;;;;;35.26;14.98;101329.97;4425811;32;19954;-71
2022/06/12 13:59:54;;;;;;;;;;;;;;;34.61;15.47;101324.81;4428073;32;20000;-70
2022/06/12 14:02:25;;;;;;;;;;;;;;;34.52;15.81;101317.47;4427408;32;19953;-70
2022/06/12 14:07:30;;;;;;;;;;;;;;;38.59;13.18;101313.22;3951356;32;15726640;-70
2022/06/12 14:09:59;;;;;;;;;;;;;;;38.59;13.18;101313.22;4434846;32;19953;-71
2022/06/12 14:12:25;;;;;;;;;;;;;;;39.59;12.04;101308.72;4433413;32;20107;-71
2022/06/12 14:14:50;;;;;;;;;;;;;;;39.41;12.03;101300.78;4433617;32;20454;-70
2022/06/12 14:17:17;;;;;;;;;;;;;;;37.73;13.30;101300.75;4421078;32;20001;-70
2022/06/12 14:19:43;;;;;;;;;;;;;;;36.57;14.09;101306.03;4433468;32;19996;-70
2022/06/12 14:22:17;;;;;;;;;;;;;;;34.79;15.66;101317.66;4434780;32;20027;-71
2022/06/12 14:24:54;;;;;;;;;;;;;;;35.00;15.50;101297.66;4431112;32;19973;-71
2022/06/12 14:27:22;;;;;;;;;;;;;;;34.28;16.17;101289.72;4432484;32;19980;-71
2022/06/12 14:29:47;;;;;;;;;;;;;;;33.81;16.61;101313.03;4433704;32;20006;-71
2022/06/12 14:37:42;;;;;;;;;;;;;;;34.41;16.35;101300.38;3970125;32;15722413;-70
2022/06/12 14:40:21;;;;;;;;;;;;;;;34.41;16.35;101300.38;4444410;32;20325;-71
2022/06/12 14:42:50;;;;;;;;;;;;;;;35.91;15.03;101298.31;4449047;32;19945;-71
2022/06/12 14:45:16;;;;;;;;;;;;;;;35.71;14.74;101317.81;4446973;32;19988;-71
2022/06/12 14:47:49;;;;;;;;;;;;;;;34.16;15.90;101302.41;4447081;32;19989;-71
2022/06/12 14:50:16;;;;;;;;;;;;;;;34.36;15.82;101313.06;4446774;32;19953;-71
2022/06/12 14:52:41;;;;;;;;;;;;;;;34.66;15.87;101298.25;4445099;32;20372;-71
2022/06/12 14:55:09;;;;;;;;;;;;;;;34.27;16.45;101290.31;4449399;32;20386;-71
2022/06/12 14:57:35;;;;;;;;;;;;;;;34.61;16.19;101295.56;4445453;32;20290;-71
2022/06/12 15:00:01;;;;;;;;;;;;;;;35.69;15.42;101300.09;4447768;32;20380;-71
2022/06/12 15:02:29;;;;;;;;;;;;;;;36.44;14.71;101291.78;4448060;32;19990;-71
2022/06/12 15:04:55;;;;;;;;;;;;;;;37.16;14.29;101292.56;4449683;32;20371;-70
2022/06/12 15:07:20;;;;;;;;;;;;;;;36.62;14.22;101287.41;4446890;32;20040;-71
2022/06/12 15:09:46;;;;;;;;;;;;;;;35.38;14.90;101295.16;4447785;32;19980;-71
2022/06/12 15:12:12;;;;;;;;;;;;;;;35.33;15.07;101296.16;4445282;32;19949;-71
2022/06/12 15:14:38;;;;;;;;;;;;;;;36.85;13.86;101281.97;4445432;32;19961;-71
2022/06/12 15:17:04;;;;;;;;;;;;;;;38.39;13.02;101297.00;4447672;32;20067;-71
2022/06/12 15:19:30;;;;;;;;;;;;;;;37.42;13.65;101293.88;4445267;32;19957;-71
2022/06/12 15:21:55;;;;;;;;;;;;;;;35.69;14.90;101291.31;4442962;32;19949;-70
2022/06/12 15:24:21;;;;;;;;;;;;;;;35.44;15.21;101284.75;4444984;32;20016;-71
2022/06/12 15:30:04;;;;;;;;;;;;;;;35.96;14.93;101268.72;4445193;32;20351;-71
2022/06/12 15:32:21;;;;;;;;;;;;;;;36.26;14.50;101272.66;4445731;32;20594;-71
2022/06/12 15:34:47;;;;;;;;;;;;;;;35.69;14.57;101281.75;4449261;32;19961;-71